createdAt,value
2023-04-24T00:01:02.701Z,48.22
2023-04-24T00:03:30.623Z,48.08
2023-04-24T00:05:59.413Z,47.91
2023-04-24T00:08:26.910Z,47.81
2023-04-24T00:10:53.840Z,47.71
2023-04-24T00:13:20.630Z,47.53
2023-04-24T00:15:48.044Z,47.29
2023-04-24T00:18:14.915Z,47.17
2023-04-24T00:20:41.804Z,47.08
2023-04-24T00:23:08.507Z,47.24
2023-04-24T00:25:35.261Z,47.43
2023-04-24T00:28:02.652Z,47.50
2023-04-24T00:30:29.601Z,47.62
2023-04-24T00:32:57.372Z,47.81
2023-04-24T00:35:24.315Z,48.00
2023-04-24T00:37:51.200Z,48.43
2023-04-24T00:40:17.954Z,48.33
2023-04-24T00:42:45.448Z,47.98
2023-04-24T00:45:12.648Z,47.44
2023-04-24T00:47:39.358Z,47.19
2023-04-24T00:50:07.303Z,47.08
2023-04-24T00:52:35.144Z,47.05
2023-04-24T00:55:01.852Z,46.98
2023-04-24T00:57:29.023Z,46.85
2023-04-24T00:59:55.692Z,46.79
2023-04-24T01:02:23.600Z,46.76
2023-04-24T01:04:53.508Z,46.93
2023-04-24T01:07:21.234Z,46.97
2023-04-24T01:09:49.318Z,46.77
2023-04-24T01:12:16.029Z,46.85
2023-04-24T01:14:44.651Z,46.84
2023-04-24T01:17:11.368Z,46.97
2023-04-24T01:19:38.863Z,47.06
2023-04-24T01:22:13.285Z,47.23
2023-04-24T01:24:40.285Z,47.27
2023-04-24T01:27:07.672Z,47.39
2023-04-24T01:29:34.902Z,47.46
2023-04-24T01:32:03.606Z,47.59
2023-04-24T01:34:30.977Z,47.96
2023-04-24T01:36:57.679Z,48.12
2023-04-24T01:39:26.072Z,48.23
2023-04-24T01:41:55.132Z,48.39
2023-04-24T01:44:21.927Z,48.50
2023-04-24T01:46:48.702Z,48.42
2023-04-24T01:49:15.984Z,48.37
2023-04-24T01:51:42.636Z,48.51
2023-04-24T01:54:09.311Z,48.33
2023-04-24T01:56:36.630Z,48.00
2023-04-24T01:59:04.337Z,47.84
2023-04-24T02:01:36.458Z,47.77
2023-04-24T02:04:03.955Z,47.68
2023-04-24T02:06:31.714Z,47.55
2023-04-24T02:09:01.245Z,47.51
2023-04-24T02:11:28.602Z,47.47
2023-04-24T02:13:55.539Z,47.33
2023-04-24T02:16:22.269Z,47.39
2023-04-24T02:18:49.149Z,47.36
2023-04-24T02:21:16.063Z,47.17
2023-04-24T02:23:42.745Z,47.07
2023-04-24T02:26:10.713Z,47.19
2023-04-24T02:28:37.439Z,47.06
2023-04-24T02:31:04.096Z,47.13
2023-04-24T02:33:31.382Z,47.18
2023-04-24T02:35:58.227Z,47.25
2023-04-24T02:38:25.394Z,47.92
2023-04-24T02:40:52.587Z,48.77
2023-04-24T02:43:19.810Z,49.21
2023-04-24T02:45:46.652Z,49.91
2023-04-24T02:48:13.414Z,50.53
2023-04-24T02:50:40.091Z,50.83
2023-04-24T02:53:06.782Z,51.08
2023-04-24T02:55:33.510Z,51.40
2023-04-24T02:58:00.469Z,51.55
2023-04-24T03:00:27.258Z,51.68
2023-04-24T03:02:54.145Z,51.83
2023-04-24T03:05:21.201Z,51.97
2023-04-24T03:07:47.942Z,51.99
2023-04-24T03:10:14.765Z,51.66
2023-04-24T03:12:42.648Z,51.21
2023-04-24T03:15:09.716Z,51.19
2023-04-24T03:17:38.384Z,51.20
2023-04-24T03:20:06.736Z,51.60
2023-04-24T03:22:35.011Z,51.76
2023-04-24T03:25:02.442Z,51.79
2023-04-24T03:27:29.531Z,51.87
2023-04-24T03:30:01.201Z,51.88
2023-04-24T03:32:34.879Z,51.52
2023-04-24T03:35:01.845Z,51.12
2023-04-24T03:37:28.977Z,51.18
2023-04-24T03:40:09.752Z,50.96
2023-04-24T03:42:39.129Z,50.56
2023-04-24T03:45:07.376Z,50.35
2023-04-24T03:47:35.322Z,50.17
2023-04-24T03:50:02.361Z,50.56
2023-04-24T03:52:30.086Z,50.88
2023-04-24T03:54:56.779Z,50.44
2023-04-24T03:57:24.494Z,49.86
2023-04-24T04:00:06.760Z,49.29
2023-04-24T04:02:41.814Z,48.96
2023-04-24T04:05:09.809Z,48.62
2023-04-24T04:07:37.039Z,48.20
2023-04-24T04:10:04.567Z,47.52
2023-04-24T04:12:31.475Z,47.20
2023-04-24T04:14:58.607Z,46.98
2023-04-24T04:17:25.561Z,46.86
2023-04-24T04:19:52.682Z,46.49
2023-04-24T04:22:19.275Z,46.20
2023-04-24T04:24:51.389Z,46.12
2023-04-24T04:27:21.631Z,45.78
2023-04-24T04:29:53.922Z,45.49
2023-04-24T04:32:22.042Z,45.18
2023-04-24T04:34:49.841Z,44.60
2023-04-24T04:37:17.676Z,44.27
2023-04-24T04:40:07.141Z,43.71
2023-04-24T04:42:40.671Z,43.52
2023-04-24T04:45:12.013Z,42.99
2023-04-24T04:47:49.163Z,42.51
2023-04-24T04:50:17.086Z,42.06
2023-04-24T04:52:43.753Z,41.72
2023-04-24T04:55:24.632Z,41.62
2023-04-24T04:58:07.998Z,41.34
2023-04-24T05:00:37.949Z,40.81
2023-04-24T05:03:20.740Z,40.14
2023-04-24T05:05:52.915Z,39.47
2023-04-24T05:08:27.134Z,38.58
2023-04-24T05:10:55.750Z,37.99
2023-04-24T05:13:35.642Z,37.59
2023-04-24T05:16:10.415Z,37.45
2023-04-24T05:18:37.297Z,37.19
2023-04-24T05:21:04.936Z,37.00
2023-04-24T05:23:32.544Z,37.24
2023-04-24T05:25:59.447Z,37.14
2023-04-24T05:28:29.118Z,37.17
2023-04-24T05:31:04.032Z,37.34
2023-04-24T05:33:31.883Z,37.87
2023-04-24T05:35:58.619Z,38.12
2023-04-24T05:38:25.701Z,38.45
2023-04-24T05:40:53.307Z,38.28
2023-04-24T05:43:20.328Z,37.74
2023-04-24T05:45:48.298Z,36.94
2023-04-24T05:48:15.341Z,35.85
2023-04-24T05:50:42.307Z,34.54
2023-04-24T05:53:11.079Z,32.42
2023-04-24T05:55:38.414Z,31.55
2023-04-24T05:58:05.202Z,30.53
2023-04-24T06:00:35.904Z,29.29
2023-04-24T06:03:05.328Z,28.34
2023-04-24T06:05:32.599Z,27.81
2023-04-24T06:07:59.736Z,27.21
2023-04-24T06:10:30.543Z,26.09
2023-04-24T06:13:00.783Z,25.18
2023-04-24T06:15:30.724Z,25.51
2023-04-24T06:18:01.169Z,24.24
2023-04-24T06:20:28.109Z,23.17
2023-04-24T06:22:54.870Z,23.18
2023-04-24T06:25:21.547Z,23.15
2023-04-24T06:27:48.285Z,22.38
2023-04-24T06:30:15.139Z,22.74
2023-04-24T06:32:42.613Z,22.10
2023-04-24T06:35:10.392Z,21.59
2023-04-24T06:37:37.285Z,21.97
2023-04-24T06:40:05.615Z,21.72
2023-04-24T06:42:35.462Z,20.71
2023-04-24T06:45:03.717Z,20.18
2023-04-24T06:47:30.552Z,19.95
2023-04-24T06:49:57.697Z,19.42
2023-04-24T06:52:24.546Z,19.18
2023-04-24T06:54:51.228Z,18.94
2023-04-24T06:57:18.676Z,18.82
2023-04-24T06:59:45.557Z,18.43
2023-04-24T07:02:12.628Z,17.98
2023-04-24T07:04:40.468Z,18.38
2023-04-24T07:07:13.396Z,17.88
2023-04-24T07:09:42.966Z,17.35
2023-04-24T07:12:14.064Z,17.19
2023-04-24T07:14:41.210Z,16.60
2023-04-24T07:17:08.708Z,16.31
2023-04-24T07:19:38.371Z,16.42
2023-04-24T07:22:05.038Z,16.63
2023-04-24T07:24:34.654Z,17.05
2023-04-24T07:27:03.982Z,17.44
2023-04-24T07:29:30.714Z,17.23
2023-04-24T07:31:57.628Z,16.06
2023-04-24T07:34:24.582Z,15.32
2023-04-24T07:36:51.466Z,15.30
2023-04-24T07:39:18.777Z,15.67
2023-04-24T07:41:45.417Z,15.66
2023-04-24T07:44:12.231Z,15.07
2023-04-24T07:46:39.004Z,14.81
2023-04-24T07:49:13.262Z,14.82
2023-04-24T07:51:41.768Z,14.44
2023-04-24T07:54:08.610Z,14.22
2023-04-24T07:56:39.165Z,13.98
2023-04-24T07:59:06.670Z,13.44
2023-04-24T08:01:34.070Z,13.23
2023-04-24T08:04:01.236Z,13.34
2023-04-24T08:06:30.878Z,13.25
2023-04-24T08:08:58.309Z,13.84
2023-04-24T08:11:25.503Z,13.59
2023-04-24T08:13:52.393Z,13.78
2023-04-24T08:16:19.251Z,13.99
2023-04-24T08:18:45.977Z,14.00
2023-04-24T08:21:17.514Z,13.65
2023-04-24T08:23:44.533Z,13.83
2023-04-24T08:26:11.806Z,13.56
2023-04-24T08:28:38.872Z,13.58
2023-04-24T08:31:05.709Z,13.86
2023-04-24T08:33:34.816Z,13.85
2023-04-24T08:36:05.852Z,13.71
2023-04-24T08:38:33.422Z,13.63
2023-04-24T08:41:01.393Z,13.48
2023-04-24T08:43:28.686Z,13.15
2023-04-24T08:45:57.283Z,12.99
2023-04-24T08:48:30.884Z,12.89
2023-04-24T08:50:59.235Z,12.69
2023-04-24T08:53:26.825Z,13.04
2023-04-24T08:55:54.918Z,13.03
2023-04-24T08:58:22.650Z,13.08
2023-04-24T09:00:49.569Z,13.14
2023-04-24T09:03:18.139Z,13.65
2023-04-24T09:05:46.410Z,13.75
2023-04-24T09:08:19.782Z,13.57
2023-04-24T09:10:49.072Z,13.27
2023-04-24T09:13:18.767Z,12.94
2023-04-24T09:15:45.684Z,12.92
2023-04-24T09:18:12.466Z,12.97
2023-04-24T09:21:03.866Z,12.64
2023-04-24T09:23:31.800Z,12.98
2023-04-24T09:26:00.517Z,13.07
2023-04-24T09:28:33.619Z,13.54
2023-04-24T09:31:10.835Z,13.27
2023-04-24T09:33:37.856Z,13.41
2023-04-24T09:36:05.019Z,14.25
2023-04-24T09:38:33.324Z,14.38
2023-04-24T09:41:04.316Z,14.43
2023-04-24T09:43:31.790Z,14.99
2023-04-24T09:45:59.602Z,15.80
2023-04-24T09:48:38.700Z,16.31
2023-04-24T09:51:07.611Z,17.04
2023-04-24T09:53:34.523Z,17.24
2023-04-24T09:56:09.053Z,17.54
2023-04-24T09:58:37.004Z,17.59
2023-04-24T10:01:04.267Z,17.51
2023-04-24T10:03:32.230Z,17.38
2023-04-24T10:06:00.231Z,18.40
2023-04-24T10:08:27.273Z,18.76
2023-04-24T10:10:54.118Z,18.77
2023-04-24T10:13:21.183Z,19.06
2023-04-24T10:15:47.911Z,19.31
2023-04-24T10:18:15.188Z,19.67
2023-04-24T10:20:42.435Z,19.88
2023-04-24T10:23:10.982Z,20.05
2023-04-24T10:25:38.081Z,20.20
2023-04-24T10:28:05.401Z,20.22
2023-04-24T10:30:38.161Z,20.31
2023-04-24T10:33:08.062Z,20.75
2023-04-24T10:35:38.171Z,21.06
2023-04-24T10:38:15.051Z,21.42
2023-04-24T10:40:42.530Z,21.65
2023-04-24T10:43:11.536Z,21.85
2023-04-24T10:45:39.115Z,21.57
2023-04-24T10:48:11.355Z,21.67
2023-04-24T10:50:45.184Z,21.47
2023-04-24T10:53:27.648Z,20.48
2023-04-24T10:55:58.543Z,20.65
2023-04-24T10:58:37.745Z,20.16
2023-04-24T11:01:04.682Z,19.90
2023-04-24T11:03:33.352Z,20.02
2023-04-24T11:06:02.845Z,20.83
2023-04-24T11:08:31.623Z,20.50
2023-04-24T11:11:04.334Z,20.14
2023-04-24T11:14:08.349Z,20.64
2023-04-24T11:16:39.518Z,20.60
2023-04-24T11:19:10.092Z,20.85
2023-04-24T11:21:50.402Z,21.14
2023-04-24T11:24:29.561Z,20.47
2023-04-24T11:27:04.445Z,20.88
2023-04-24T11:29:48.719Z,21.04
2023-04-24T11:32:30.663Z,21.46
2023-04-24T11:35:02.189Z,22.13
2023-04-24T11:37:39.964Z,22.30
2023-04-24T11:40:11.450Z,22.12
2023-04-24T11:42:45.107Z,22.26
2023-04-24T11:45:16.298Z,22.90
2023-04-24T11:47:43.741Z,23.47
2023-04-24T11:50:15.320Z,23.98
2023-04-24T11:52:43.851Z,25.66
2023-04-24T11:55:16.663Z,26.24
2023-04-24T11:57:45.055Z,26.78
2023-04-24T12:00:19.968Z,27.26
2023-04-24T12:02:47.253Z,27.81
2023-04-24T12:05:40.512Z,28.82
2023-04-24T12:08:07.372Z,29.61
2023-04-24T12:10:35.268Z,30.39
2023-04-24T12:13:01.954Z,31.75
2023-04-24T12:15:29.275Z,32.71
2023-04-24T12:17:56.121Z,34.75
2023-04-24T12:20:28.201Z,36.07
2023-04-24T12:22:58.398Z,36.82
2023-04-24T12:25:26.484Z,36.42
2023-04-24T12:28:12.784Z,36.83
2023-04-24T12:30:48.804Z,36.51
2023-04-24T12:33:22.207Z,36.36
2023-04-24T12:35:51.876Z,35.11
2023-04-24T12:38:22.669Z,35.83
2023-04-24T12:41:05.164Z,35.06
2023-04-24T12:43:32.474Z,35.88
2023-04-24T12:45:59.609Z,35.29
2023-04-24T12:48:27.444Z,35.46
2023-04-24T12:50:54.157Z,36.13
2023-04-24T12:53:20.812Z,36.56
2023-04-24T12:55:52.839Z,36.61
2023-04-24T12:58:20.883Z,35.91
2023-04-24T13:00:47.905Z,35.97
2023-04-24T13:03:15.270Z,35.72
2023-04-24T13:05:43.182Z,35.74
2023-04-24T13:08:09.886Z,35.85
2023-04-24T13:10:37.833Z,36.09
2023-04-24T13:13:04.921Z,35.26
2023-04-24T13:15:31.986Z,33.60
2023-04-24T13:17:58.630Z,32.21
2023-04-24T13:20:25.853Z,32.37
2023-04-24T13:22:52.613Z,32.27
2023-04-24T13:25:20.863Z,32.71
2023-04-24T13:27:47.571Z,32.55
2023-04-24T13:30:14.586Z,32.20
2023-04-24T13:32:41.427Z,32.22
2023-04-24T13:35:08.893Z,31.93
2023-04-24T13:37:35.626Z,31.74
2023-04-24T13:40:06.409Z,32.19
2023-04-24T13:42:33.683Z,32.15
2023-04-24T13:45:01.001Z,32.53
2023-04-24T13:47:30.024Z,32.91
2023-04-24T13:49:56.648Z,32.68
2023-04-24T13:52:23.304Z,32.49
2023-04-24T13:54:50.027Z,32.54
2023-04-24T13:57:17.228Z,31.86
2023-04-24T13:59:43.929Z,30.85
2023-04-24T14:02:10.690Z,30.93
2023-04-24T14:04:38.078Z,31.78
2023-04-24T14:07:05.272Z,31.91
2023-04-24T14:09:32.147Z,31.61
2023-04-24T14:11:58.955Z,31.69
2023-04-24T14:14:25.734Z,31.57
2023-04-24T14:16:52.329Z,31.87
2023-04-24T14:19:18.999Z,32.22
2023-04-24T14:21:45.601Z,32.31
2023-04-24T14:24:12.282Z,32.53
2023-04-24T14:26:39.147Z,33.47
2023-04-24T14:29:14.115Z,34.14
2023-04-24T14:31:41.648Z,34.45
2023-04-24T14:34:08.636Z,34.65
2023-04-24T14:36:35.691Z,34.26
2023-04-24T14:39:06.614Z,34.08
2023-04-24T14:41:36.182Z,33.95
2023-04-24T14:44:03.536Z,33.66
2023-04-24T14:46:30.877Z,33.45
2023-04-24T14:48:58.268Z,33.61
2023-04-24T14:51:25.907Z,33.14
2023-04-24T14:53:52.863Z,32.78
2023-04-24T14:56:19.593Z,32.75
2023-04-24T14:58:46.245Z,32.78
2023-04-24T15:01:12.896Z,33.18
2023-04-24T15:03:39.700Z,33.29
2023-04-24T15:06:07.012Z,33.46
2023-04-24T15:08:33.638Z,33.39
2023-04-24T15:11:00.426Z,33.58
2023-04-24T15:13:27.099Z,33.94
2023-04-24T15:15:54.207Z,33.98
2023-04-24T15:18:21.039Z,33.50
2023-04-24T15:20:47.704Z,33.27
2023-04-24T15:23:14.324Z,33.34
2023-04-24T15:25:40.994Z,33.50
2023-04-24T15:28:07.664Z,33.60
2023-04-24T15:30:35.052Z,33.54
2023-04-24T15:33:02.269Z,33.44
2023-04-24T15:35:29.182Z,33.49
2023-04-24T15:37:55.774Z,33.63
2023-04-24T15:40:22.444Z,33.60
2023-04-24T15:42:49.301Z,33.85
2023-04-24T15:45:16.030Z,34.00
2023-04-24T15:47:44.727Z,33.90
2023-04-24T15:50:14.134Z,33.90
2023-04-24T15:52:42.009Z,33.98
2023-04-24T15:55:09.066Z,33.99
2023-04-24T15:57:35.734Z,34.00
2023-04-24T16:00:06.460Z,33.82
2023-04-24T16:02:38.891Z,33.95
2023-04-24T16:05:06.864Z,34.04
2023-04-24T16:07:34.734Z,34.30
2023-04-24T16:10:01.328Z,34.51
2023-04-24T16:12:28.888Z,34.84
2023-04-24T16:14:55.591Z,35.10
2023-04-24T16:17:22.625Z,35.04
2023-04-24T16:19:49.346Z,34.96
2023-04-24T16:22:16.104Z,35.06
2023-04-24T16:24:43.133Z,35.34
2023-04-24T16:27:10.381Z,35.52
2023-04-24T16:29:37.377Z,35.58
2023-04-24T16:32:04.055Z,35.79
2023-04-24T16:34:30.944Z,35.63
2023-04-24T16:36:57.663Z,35.95
2023-04-24T16:39:25.307Z,36.29
2023-04-24T16:41:54.087Z,36.82
2023-04-24T16:44:20.787Z,37.32
2023-04-24T16:46:47.465Z,37.79
2023-04-24T16:49:14.154Z,38.09
2023-04-24T16:51:40.786Z,38.60
2023-04-24T16:54:07.357Z,38.73
2023-04-24T16:56:34.780Z,39.00
2023-04-24T16:59:01.389Z,39.38
2023-04-24T17:01:28.243Z,39.82
2023-04-24T17:03:55.542Z,39.86
2023-04-24T17:06:22.318Z,40.16
2023-04-24T17:08:49.063Z,40.11
2023-04-24T17:11:15.818Z,39.94
2023-04-24T17:13:42.661Z,40.11
2023-04-24T17:16:09.311Z,40.26
2023-04-24T17:18:36.391Z,40.38
2023-04-24T17:21:03.109Z,40.50
2023-04-24T17:23:31.262Z,40.38
2023-04-24T17:25:57.866Z,40.36
2023-04-24T17:28:26.609Z,40.42
2023-04-24T17:30:55.007Z,40.28
2023-04-24T17:33:21.696Z,40.38
2023-04-24T17:35:49.610Z,40.34
2023-04-24T17:38:17.568Z,40.55
2023-04-24T17:40:45.653Z,40.77
2023-04-24T17:43:17.518Z,40.81
2023-04-24T17:45:45.032Z,40.84
2023-04-24T17:48:13.172Z,40.78
2023-04-24T17:50:40.067Z,41.03
2023-04-24T17:53:07.192Z,41.16
2023-04-24T17:55:34.415Z,41.30
2023-04-24T17:58:04.005Z,41.36
2023-04-24T18:00:31.726Z,41.37
2023-04-24T18:03:00.515Z,41.58
2023-04-24T18:05:28.408Z,41.64
2023-04-24T18:07:55.346Z,41.74
2023-04-24T18:10:22.686Z,41.95
2023-04-24T18:12:49.294Z,41.96
2023-04-24T18:15:16.501Z,42.12
2023-04-24T18:17:43.188Z,42.17
2023-04-24T18:20:11.353Z,42.28
2023-04-24T18:22:38.587Z,42.43
2023-04-24T18:25:05.962Z,42.69
2023-04-24T18:27:33.497Z,42.94
2023-04-24T18:30:00.221Z,43.19
2023-04-24T18:32:27.187Z,43.30
2023-04-24T18:34:53.803Z,43.37
2023-04-24T18:37:20.708Z,43.41
2023-04-24T18:39:47.382Z,43.52
2023-04-24T18:42:14.177Z,43.76
2023-04-24T18:44:42.192Z,43.92
2023-04-24T18:47:09.232Z,44.22
2023-04-24T18:49:35.966Z,44.34
2023-04-24T18:52:02.785Z,44.55
2023-04-24T18:54:29.746Z,44.79
2023-04-24T18:56:56.561Z,44.98
2023-04-24T18:59:23.298Z,45.11
2023-04-24T19:01:50.167Z,45.25
2023-04-24T19:04:17.873Z,45.47
2023-04-24T19:06:44.669Z,45.54
2023-04-24T19:09:11.448Z,45.54
2023-04-24T19:11:38.172Z,45.58
2023-04-24T19:14:05.225Z,45.79
2023-04-24T19:16:31.859Z,46.14
2023-04-24T19:18:58.775Z,46.78
2023-04-24T19:21:25.757Z,47.33
2023-04-24T19:23:52.447Z,47.89
2023-04-24T19:26:20.965Z,48.12
2023-04-24T19:28:47.807Z,48.51
2023-04-24T19:31:14.992Z,48.88
2023-04-24T19:33:41.896Z,49.19
2023-04-24T19:36:08.532Z,49.28
2023-04-24T19:38:35.562Z,49.56
2023-04-24T19:41:02.420Z,49.82
2023-04-24T19:43:29.298Z,50.12
2023-04-24T19:45:57.316Z,50.52
2023-04-24T19:48:24.007Z,50.59
2023-04-24T19:50:50.853Z,50.96
2023-04-24T19:53:18.257Z,51.14
2023-04-24T19:55:45.440Z,51.35
2023-04-24T19:58:12.029Z,51.60
2023-04-24T20:00:40.755Z,51.84
2023-04-24T20:03:08.436Z,52.01
2023-04-24T20:05:37.286Z,52.24
2023-04-24T20:08:04.164Z,52.62
2023-04-24T20:10:30.824Z,52.79
2023-04-24T20:12:57.469Z,52.93
2023-04-24T20:15:24.067Z,53.02
2023-04-24T20:17:50.698Z,53.23
2023-04-24T20:20:17.814Z,53.33
2023-04-24T20:22:44.452Z,53.61
2023-04-24T20:25:12.866Z,53.84
2023-04-24T20:27:40.417Z,53.95
2023-04-24T20:30:12.275Z,54.21
2023-04-24T20:32:40.218Z,54.62
2023-04-24T20:35:07.284Z,54.83
2023-04-24T20:37:35.713Z,55.58
2023-04-24T20:40:04.992Z,56.18
2023-04-24T20:42:32.262Z,56.76
2023-04-24T20:44:59.278Z,57.50
2023-04-24T20:47:26.257Z,58.45
2023-04-24T20:49:53.360Z,59.43
2023-04-24T20:52:20.326Z,60.15
2023-04-24T20:54:47.755Z,60.40
2023-04-24T20:57:15.235Z,60.67
2023-04-24T20:59:42.154Z,61.28
2023-04-24T21:02:08.868Z,61.53
2023-04-24T21:04:37.987Z,62.05
2023-04-24T21:07:05.624Z,62.68
2023-04-24T21:09:32.232Z,63.09
2023-04-24T21:11:58.780Z,63.45
2023-04-24T21:14:25.434Z,63.81
2023-04-24T21:16:52.090Z,64.35
2023-04-24T21:19:19.005Z,64.65
2023-04-24T21:21:45.782Z,64.94
2023-04-24T21:24:12.489Z,65.20
2023-04-24T21:26:39.114Z,65.34
2023-04-24T21:29:05.759Z,65.59
2023-04-24T21:31:32.588Z,65.60
2023-04-24T21:33:59.307Z,65.58
2023-04-24T21:36:26.253Z,65.73
2023-04-24T21:38:52.841Z,65.94
2023-04-24T21:41:19.795Z,65.93
2023-04-24T21:43:47.903Z,66.18
2023-04-24T21:46:16.525Z,66.49
2023-04-24T21:48:43.203Z,66.64
2023-04-24T21:51:09.993Z,66.82
2023-04-24T21:53:36.745Z,67.04
2023-04-24T21:56:03.521Z,67.29
2023-04-24T21:58:30.176Z,67.31
2023-04-24T22:00:57.129Z,67.64
2023-04-24T22:03:24.141Z,67.85
2023-04-24T22:05:50.989Z,67.91
2023-04-24T22:08:18.029Z,68.05
2023-04-24T22:10:44.698Z,68.28
2023-04-24T22:13:11.585Z,68.59
2023-04-24T22:15:38.140Z,68.88
2023-04-24T22:18:06.097Z,69.13
2023-04-24T22:20:33.662Z,69.44
2023-04-24T22:23:00.450Z,69.51
2023-04-24T22:25:27.113Z,69.64
2023-04-24T22:27:53.783Z,69.86
2023-04-24T22:30:20.429Z,70.07
2023-04-24T22:32:47.337Z,70.09
2023-04-24T22:35:13.975Z,70.31
2023-04-24T22:37:40.652Z,70.38
2023-04-24T22:40:07.878Z,70.55
2023-04-24T22:42:34.746Z,70.73
2023-04-24T22:45:01.480Z,71.07
2023-04-24T22:47:28.517Z,71.16
2023-04-24T22:49:57.163Z,71.15
2023-04-24T22:52:23.732Z,71.74
2023-04-24T22:54:51.192Z,72.29
2023-04-24T22:57:17.860Z,72.51
2023-04-24T22:59:44.588Z,72.89
2023-04-24T23:02:11.264Z,73.09
2023-04-24T23:04:38.087Z,73.25
2023-04-24T23:07:04.981Z,73.33
2023-04-24T23:09:31.857Z,73.28
2023-04-24T23:11:58.662Z,73.39
2023-04-24T23:14:25.308Z,73.48
2023-04-24T23:16:52.032Z,73.65
2023-04-24T23:19:18.728Z,73.54
2023-04-24T23:21:45.317Z,73.66
2023-04-24T23:24:11.977Z,73.95
2023-04-24T23:26:38.627Z,74.23
2023-04-24T23:29:05.409Z,74.38
2023-04-24T23:31:32.214Z,74.87
2023-04-24T23:33:59.725Z,75.16
2023-04-24T23:36:26.333Z,75.48
2023-04-24T23:38:52.913Z,75.81
2023-04-24T23:41:19.499Z,76.31
2023-04-24T23:43:46.205Z,76.78
2023-04-24T23:46:13.245Z,77.18
2023-04-24T23:48:40.073Z,77.31
2023-04-24T23:51:06.684Z,77.52
2023-04-24T23:53:33.471Z,77.79
2023-04-24T23:56:00.234Z,77.85
2023-04-24T23:58:26.861Z,78.06
